createdAt,value
2022-12-03T00:00:24.564Z,5.53
2022-12-03T00:02:51.652Z,6.10
2022-12-03T00:05:18.611Z,5.75
2022-12-03T00:07:48.332Z,4.65
2022-12-03T00:10:16.075Z,5.22
2022-12-03T00:12:46.081Z,5.35
2022-12-03T00:15:12.982Z,5.70
2022-12-03T00:17:40.251Z,5.10
2022-12-03T00:20:07.954Z,4.45
2022-12-03T00:22:34.760Z,4.50
2022-12-03T00:25:01.800Z,6.55
2022-12-03T00:27:28.700Z,5.65
2022-12-03T00:29:55.556Z,5.10
2022-12-03T00:32:23.769Z,5.00
2022-12-03T00:34:50.822Z,5.22
2022-12-03T00:37:17.864Z,5.32
2022-12-03T00:39:44.766Z,5.18
2022-12-03T00:42:11.637Z,4.93
2022-12-03T00:44:38.572Z,4.38
2022-12-03T00:47:05.523Z,4.25
2022-12-03T00:49:34.865Z,4.30
2022-12-03T00:52:01.814Z,4.90
2022-12-03T00:54:32.081Z,4.50
2022-12-03T00:56:59.367Z,5.28
2022-12-03T00:59:26.287Z,4.85
2022-12-03T01:01:53.206Z,4.30
2022-12-03T01:04:20.247Z,4.65
2022-12-03T01:06:47.200Z,5.07
2022-12-03T01:09:14.141Z,5.25
2022-12-03T01:11:41.561Z,5.18
2022-12-03T01:14:16.519Z,5.35
2022-12-03T01:16:43.612Z,5.18
2022-12-03T01:19:10.905Z,5.25
2022-12-03T01:21:38.036Z,5.95
2022-12-03T01:24:05.393Z,4.75
2022-12-03T01:26:32.326Z,7.30
2022-12-03T01:28:59.783Z,5.97
2022-12-03T01:31:45.588Z,5.65
2022-12-03T01:34:12.545Z,6.20
2022-12-03T01:36:39.464Z,7.07
2022-12-03T01:39:08.651Z,6.63
2022-12-03T01:41:35.911Z,6.40
2022-12-03T01:44:03.489Z,6.30
2022-12-03T01:46:39.468Z,7.70
2022-12-03T01:49:06.443Z,6.63
2022-12-03T01:51:33.327Z,6.85
2022-12-03T01:54:00.560Z,6.82
2022-12-03T01:56:27.403Z,7.13
2022-12-03T01:58:54.344Z,6.60
2022-12-03T02:01:21.424Z,6.93
2022-12-03T02:03:48.441Z,7.05
2022-12-03T02:06:20.485Z,6.43
2022-12-03T02:08:47.755Z,7.85
2022-12-03T02:11:22.412Z,7.72
2022-12-03T02:13:50.476Z,7.28
2022-12-03T02:16:17.598Z,8.07
2022-12-03T02:18:44.622Z,6.75
2022-12-03T02:21:29.243Z,6.70
2022-12-03T02:24:16.781Z,6.30
2022-12-03T02:26:43.729Z,8.13
2022-12-03T02:29:10.832Z,8.63
2022-12-03T02:31:37.994Z,7.53
2022-12-03T02:34:08.253Z,6.45
2022-12-03T02:36:35.429Z,6.97
2022-12-03T02:39:02.438Z,6.60
2022-12-03T02:41:47.997Z,7.38
2022-12-03T02:44:16.343Z,7.15
2022-12-03T02:46:43.478Z,6.85
2022-12-03T02:49:10.319Z,7.68
2022-12-03T02:51:37.921Z,7.32
2022-12-03T02:54:04.894Z,5.75
2022-12-03T02:56:31.824Z,6.32
2022-12-03T02:59:00.010Z,6.25
2022-12-03T03:01:26.986Z,6.85
2022-12-03T03:03:54.090Z,6.10
2022-12-03T03:06:22.706Z,5.57
2022-12-03T03:08:50.269Z,6.07
2022-12-03T03:11:17.143Z,5.78
2022-12-03T03:13:44.010Z,6.10
2022-12-03T03:16:11.033Z,5.05
2022-12-03T03:18:38.392Z,5.15
2022-12-03T03:21:05.649Z,5.03
2022-12-03T03:23:35.367Z,5.95
2022-12-03T03:26:07.794Z,4.95
2022-12-03T03:28:36.195Z,4.93
2022-12-03T03:31:05.501Z,4.90
2022-12-03T03:33:32.442Z,4.45
2022-12-03T03:36:00.454Z,4.55
2022-12-03T03:38:27.494Z,4.88
2022-12-03T03:40:54.393Z,4.03
2022-12-03T03:43:21.902Z,4.75
2022-12-03T03:45:48.965Z,4.10
2022-12-03T03:48:15.942Z,4.72
2022-12-03T03:50:42.836Z,4.32
2022-12-03T03:53:09.881Z,4.40
2022-12-03T03:55:36.782Z,4.20
2022-12-03T03:58:03.666Z,4.57
2022-12-03T04:00:30.947Z,4.05
2022-12-03T04:02:57.910Z,4.70
2022-12-03T04:05:24.953Z,4.40
2022-12-03T04:07:53.335Z,4.13
2022-12-03T04:10:38.936Z,4.18
2022-12-03T04:13:06.976Z,3.97
2022-12-03T04:15:33.894Z,6.55
2022-12-03T04:18:19.309Z,4.93
2022-12-03T04:20:46.253Z,4.07
2022-12-03T04:23:13.622Z,3.88
2022-12-03T04:26:03.593Z,4.65
2022-12-03T04:28:52.442Z,5.13
2022-12-03T04:31:38.059Z,6.57
2022-12-03T04:34:23.644Z,5.88
2022-12-03T04:36:50.591Z,5.85
2022-12-03T04:39:17.515Z,6.55
2022-12-03T04:41:44.775Z,6.60
2022-12-03T04:44:30.969Z,5.70
2022-12-03T04:46:57.915Z,5.78
2022-12-03T04:49:24.742Z,6.28
2022-12-03T04:51:51.541Z,5.53
2022-12-03T04:54:18.932Z,6.47
2022-12-03T04:56:45.747Z,6.65
2022-12-03T04:59:15.936Z,6.22
2022-12-03T05:01:44.020Z,6.60
2022-12-03T05:04:11.630Z,6.30
2022-12-03T05:06:38.675Z,7.22
2022-12-03T05:09:06.681Z,6.63
2022-12-03T05:11:33.648Z,7.35
2022-12-03T05:14:00.638Z,7.68
2022-12-03T05:16:29.073Z,8.95
2022-12-03T05:18:56.002Z,8.02
2022-12-03T05:21:22.912Z,8.27
2022-12-03T05:23:49.972Z,7.15
2022-12-03T05:26:16.962Z,8.45
2022-12-03T05:28:43.868Z,8.45
2022-12-03T05:31:10.894Z,7.22
2022-12-03T05:33:43.758Z,7.82
2022-12-03T05:36:11.319Z,7.78
2022-12-03T05:38:38.208Z,9.07
2022-12-03T05:41:25.150Z,10.02
2022-12-03T05:43:52.125Z,7.18
2022-12-03T05:46:19.179Z,7.68
2022-12-03T05:48:47.400Z,7.82
2022-12-03T05:51:14.383Z,7.60
2022-12-03T05:53:41.284Z,7.97
2022-12-03T05:56:08.293Z,9.00
2022-12-03T05:58:35.218Z,7.88
2022-12-03T06:01:02.107Z,8.27
2022-12-03T06:03:29.109Z,7.93
2022-12-03T06:05:56.105Z,6.78
2022-12-03T06:08:22.997Z,7.30
2022-12-03T06:10:49.956Z,6.00
2022-12-03T06:13:17.494Z,7.40
2022-12-03T06:15:45.503Z,6.57
2022-12-03T06:18:12.502Z,6.65
2022-12-03T06:20:39.559Z,6.80
2022-12-03T06:23:06.373Z,6.68
2022-12-03T06:25:33.305Z,6.30
2022-12-03T06:28:00.156Z,6.10
2022-12-03T06:30:27.025Z,6.63
2022-12-03T06:32:53.979Z,5.63
2022-12-03T06:35:20.924Z,6.75
2022-12-03T06:37:49.155Z,6.47
2022-12-03T06:40:16.913Z,6.47
2022-12-03T06:42:43.888Z,6.47
2022-12-03T06:45:12.799Z,6.25
2022-12-03T06:47:39.746Z,6.32
2022-12-03T06:50:07.729Z,5.70
2022-12-03T06:52:34.971Z,6.28
2022-12-03T06:55:01.801Z,5.93
2022-12-03T06:57:28.804Z,4.88
2022-12-03T06:59:55.975Z,5.97
2022-12-03T07:02:23.098Z,7.15
2022-12-03T07:04:50.070Z,5.97
2022-12-03T07:07:16.909Z,5.95
2022-12-03T07:09:43.878Z,6.28
2022-12-03T07:12:11.252Z,5.22
2022-12-03T07:14:38.361Z,6.10
2022-12-03T07:17:05.223Z,6.10
2022-12-03T07:19:33.103Z,5.03
2022-12-03T07:22:00.475Z,5.78
2022-12-03T07:24:27.618Z,6.68
2022-12-03T07:26:54.652Z,5.20
2022-12-03T07:29:21.680Z,6.13
2022-12-03T07:31:48.716Z,5.70
2022-12-03T07:34:15.791Z,6.50
2022-12-03T07:36:42.697Z,5.90
2022-12-03T07:39:09.580Z,5.15
2022-12-03T07:41:36.508Z,5.78
2022-12-03T07:44:05.579Z,5.03
2022-12-03T07:46:36.151Z,5.23
2022-12-03T07:49:03.595Z,4.60
2022-12-03T07:51:32.366Z,4.80
2022-12-03T07:53:59.446Z,4.32
2022-12-03T07:56:26.755Z,5.60
2022-12-03T07:58:53.604Z,4.63
2022-12-03T08:01:20.617Z,3.95
2022-12-03T08:03:48.017Z,5.05
2022-12-03T08:06:15.184Z,3.83
2022-12-03T08:08:43.678Z,4.05
2022-12-03T08:11:12.878Z,3.80
2022-12-03T08:13:40.403Z,4.68
2022-12-03T08:16:18.869Z,4.35
2022-12-03T08:18:46.323Z,4.28
2022-12-03T08:21:20.620Z,4.32
2022-12-03T08:23:47.680Z,3.92
2022-12-03T08:26:25.770Z,4.88
2022-12-03T08:28:53.350Z,3.65
2022-12-03T08:31:26.890Z,4.03
2022-12-03T08:34:06.909Z,3.50
2022-12-03T08:36:34.004Z,3.90
2022-12-03T08:39:02.448Z,3.95
2022-12-03T08:41:48.124Z,3.83
2022-12-03T08:44:28.128Z,3.15
2022-12-03T08:47:24.248Z,3.33
2022-12-03T08:49:55.810Z,3.97
2022-12-03T08:52:23.222Z,3.53
2022-12-03T08:54:54.524Z,3.15
2022-12-03T08:57:27.326Z,4.25
2022-12-03T08:59:59.372Z,3.42
2022-12-03T09:02:32.993Z,3.60
2022-12-03T09:05:34.970Z,3.30
2022-12-03T09:08:02.033Z,3.40
2022-12-03T09:10:29.042Z,3.30
2022-12-03T09:12:55.863Z,3.75
2022-12-03T09:15:22.716Z,3.25
2022-12-03T09:17:50.044Z,3.28
2022-12-03T09:20:17.006Z,3.40
2022-12-03T09:22:43.946Z,3.15
2022-12-03T09:25:10.995Z,2.53
2022-12-03T09:27:38.006Z,2.88
2022-12-03T09:30:06.499Z,2.90
2022-12-03T09:32:33.478Z,2.85
2022-12-03T09:35:00.434Z,3.45
2022-12-03T09:37:27.335Z,3.10
2022-12-03T09:39:54.184Z,2.25
2022-12-03T09:42:21.071Z,2.80
2022-12-03T09:44:48.012Z,2.88
2022-12-03T09:47:14.879Z,2.88
2022-12-03T09:49:42.151Z,2.53
2022-12-03T09:52:10.741Z,3.30
2022-12-03T09:54:52.224Z,2.47
2022-12-03T09:57:19.260Z,2.35
2022-12-03T09:59:46.196Z,3.63
2022-12-03T10:02:29.760Z,2.90
2022-12-03T10:04:57.496Z,2.92
2022-12-03T10:07:25.500Z,2.33
2022-12-03T10:09:52.760Z,3.25
2022-12-03T10:12:26.749Z,2.53
2022-12-03T10:17:34.104Z,2.53
2022-12-03T10:20:01.809Z,2.25
2022-12-03T10:22:28.807Z,2.38
2022-12-03T10:25:06.430Z,2.35
2022-12-03T10:27:33.444Z,2.45
2022-12-03T10:30:01.649Z,2.53
2022-12-03T10:32:46.218Z,2.42
2022-12-03T10:35:21.242Z,2.55
2022-12-03T10:38:16.633Z,2.30
2022-12-03T10:40:43.585Z,2.25
2022-12-03T10:43:19.776Z,2.63
2022-12-03T10:45:47.662Z,2.90
2022-12-03T10:48:19.312Z,2.53
2022-12-03T10:50:48.379Z,2.25
2022-12-03T10:53:15.496Z,3.33
2022-12-03T10:55:42.874Z,4.10
2022-12-03T10:58:23.920Z,2.75
2022-12-03T11:00:56.830Z,2.80
2022-12-03T11:03:28.810Z,2.63
2022-12-03T11:05:56.198Z,2.08
2022-12-03T11:08:24.659Z,2.95
2022-12-03T11:11:07.168Z,2.42
2022-12-03T11:13:33.965Z,2.17
2022-12-03T11:16:05.346Z,2.72
2022-12-03T11:18:38.577Z,2.50
2022-12-03T11:21:09.526Z,2.05
2022-12-03T11:23:45.608Z,2.55
2022-12-03T11:26:19.270Z,2.83
2022-12-03T11:28:46.665Z,2.50
2022-12-03T11:31:39.751Z,3.42
2022-12-03T11:34:18.920Z,2.80
2022-12-03T11:37:08.170Z,2.70
2022-12-03T11:39:50.043Z,4.72
2022-12-03T11:42:25.756Z,2.25
2022-12-03T11:45:16.871Z,2.72
2022-12-03T11:48:00.636Z,2.60
2022-12-03T11:50:39.807Z,2.25
2022-12-03T11:53:21.561Z,3.85
2022-12-03T11:55:53.264Z,2.13
2022-12-03T11:58:27.886Z,2.35
2022-12-03T12:00:56.773Z,2.58
2022-12-03T12:03:50.995Z,2.78
2022-12-03T12:06:19.354Z,2.40
2022-12-03T12:08:52.104Z,2.60
2022-12-03T12:11:19.639Z,2.53
2022-12-03T12:13:50.617Z,2.75
2022-12-03T12:16:43.357Z,2.92
2022-12-03T12:19:29.967Z,2.83
2022-12-03T12:22:13.225Z,2.88
2022-12-03T12:24:47.013Z,3.92
2022-12-03T12:27:21.577Z,3.22
2022-12-03T12:29:56.786Z,3.13
2022-12-03T12:32:31.385Z,3.20
2022-12-03T12:35:02.394Z,3.53
2022-12-03T12:37:35.071Z,3.13
2022-12-03T12:40:09.195Z,3.20
2022-12-03T12:42:43.201Z,3.10
2022-12-03T12:45:18.605Z,3.58
2022-12-03T12:48:09.793Z,3.80
2022-12-03T12:50:40.794Z,3.78
2022-12-03T12:53:24.949Z,4.15
2022-12-03T12:56:02.537Z,4.00
2022-12-03T12:58:31.535Z,4.55
2022-12-03T13:01:04.253Z,4.00
2022-12-03T13:03:34.258Z,6.45
2022-12-03T13:06:01.913Z,3.70
2022-12-03T13:08:39.585Z,4.80
2022-12-03T13:11:06.530Z,4.85
2022-12-03T13:13:54.290Z,4.43
2022-12-03T13:16:33.181Z,5.07
2022-12-03T13:19:00.590Z,6.85
2022-12-03T13:21:38.359Z,6.22
2022-12-03T13:24:34.463Z,6.57
2022-12-03T13:27:20.895Z,6.00
2022-12-03T13:29:51.151Z,6.75
2022-12-03T13:32:30.938Z,7.13
2022-12-03T13:35:10.409Z,6.07
2022-12-03T13:37:37.347Z,9.00
2022-12-03T13:40:30.767Z,7.68
2022-12-03T13:42:58.147Z,6.72
2022-12-03T13:45:34.134Z,6.50
2022-12-03T13:48:03.422Z,7.25
2022-12-03T13:50:46.998Z,6.60
2022-12-03T13:53:23.648Z,6.68
2022-12-03T13:56:00.880Z,7.13
2022-12-03T13:58:27.789Z,7.13
2022-12-03T14:00:54.727Z,7.28
2022-12-03T14:03:23.349Z,7.70
2022-12-03T14:05:50.335Z,6.78
2022-12-03T14:08:17.369Z,7.10
2022-12-03T14:10:44.339Z,7.40
2022-12-03T14:13:11.363Z,7.50
2022-12-03T14:15:38.417Z,6.13
2022-12-03T14:18:05.257Z,6.82
2022-12-03T14:20:34.438Z,7.28
2022-12-03T14:23:01.383Z,7.03
2022-12-03T14:25:28.539Z,8.68
2022-12-03T14:27:55.396Z,7.00
2022-12-03T14:30:22.266Z,7.22
2022-12-03T14:32:49.245Z,7.00
2022-12-03T14:35:16.249Z,7.05
2022-12-03T14:37:44.887Z,7.47
2022-12-03T14:40:15.372Z,7.90
2022-12-03T14:42:46.580Z,7.78
2022-12-03T14:45:13.553Z,7.50
2022-12-03T14:47:40.441Z,7.43
2022-12-03T14:50:08.042Z,6.60
2022-12-03T14:52:35.009Z,7.20
2022-12-03T14:55:01.869Z,8.02
2022-12-03T14:57:28.722Z,7.03
2022-12-03T14:59:56.017Z,7.07
2022-12-03T15:02:26.328Z,6.80
2022-12-03T15:04:53.315Z,7.22
2022-12-03T15:07:20.203Z,8.00
2022-12-03T15:09:47.017Z,7.80
2022-12-03T15:12:14.019Z,6.75
2022-12-03T15:14:41.495Z,7.53
2022-12-03T15:17:08.517Z,7.38
2022-12-03T15:19:35.432Z,6.65
2022-12-03T15:22:02.324Z,7.07
2022-12-03T15:24:29.231Z,6.65
2022-12-03T15:26:56.138Z,7.20
2022-12-03T15:29:23.377Z,7.05
2022-12-03T15:31:50.333Z,5.95
2022-12-03T15:34:22.109Z,7.50
2022-12-03T15:36:49.339Z,6.65
2022-12-03T15:39:16.285Z,7.85
2022-12-03T15:41:44.352Z,7.88
2022-12-03T15:44:12.896Z,6.43
2022-12-03T15:46:40.286Z,7.38
2022-12-03T15:49:07.152Z,6.55
2022-12-03T15:51:35.477Z,8.18
2022-12-03T15:54:02.417Z,6.93
2022-12-03T15:56:29.404Z,6.80
2022-12-03T15:58:56.496Z,7.72
2022-12-03T16:01:23.392Z,7.28
2022-12-03T16:03:50.266Z,8.10
2022-12-03T16:06:18.280Z,8.00
2022-12-03T16:08:45.178Z,8.23
2022-12-03T16:11:12.178Z,7.60
2022-12-03T16:13:39.145Z,7.63
2022-12-03T16:16:06.187Z,7.22
2022-12-03T16:18:33.178Z,7.15
2022-12-03T16:21:00.091Z,8.25
2022-12-03T16:23:27.078Z,8.60
2022-12-03T16:25:54.005Z,7.75
2022-12-03T16:28:20.959Z,7.40
2022-12-03T16:30:47.893Z,8.50
2022-12-03T16:33:14.834Z,7.70
2022-12-03T16:35:41.808Z,8.18
2022-12-03T16:38:08.768Z,7.95
2022-12-03T16:40:35.642Z,7.43
2022-12-03T16:43:04.442Z,8.77
2022-12-03T16:45:51.624Z,6.97
2022-12-03T16:48:19.085Z,8.50
2022-12-03T16:50:46.008Z,7.88
2022-12-03T16:53:13.429Z,7.93
2022-12-03T16:55:40.523Z,8.52
2022-12-03T16:58:07.546Z,8.25
2022-12-03T17:00:34.414Z,9.05
2022-12-03T17:03:01.449Z,8.50
2022-12-03T17:05:28.441Z,8.45
2022-12-03T17:07:55.385Z,11.45
2022-12-03T17:10:22.696Z,8.95
2022-12-03T17:15:36.825Z,8.13
2022-12-03T17:18:03.914Z,9.70
2022-12-03T17:20:31.634Z,9.15
2022-12-03T17:22:59.247Z,8.30
2022-12-03T17:25:26.452Z,9.95
2022-12-03T17:27:54.501Z,8.18
2022-12-03T17:30:21.436Z,8.48
2022-12-03T17:32:50.461Z,8.65
2022-12-03T17:35:17.743Z,9.13
2022-12-03T17:37:47.573Z,10.40
2022-12-03T17:40:15.737Z,9.57
2022-12-03T17:42:42.760Z,9.05
2022-12-03T17:45:10.336Z,11.40
2022-12-03T17:47:37.472Z,10.15
2022-12-03T17:50:04.703Z,9.35
2022-12-03T17:52:31.648Z,9.55
2022-12-03T17:55:23.665Z,10.95
2022-12-03T17:57:45.651Z,9.88
2022-12-03T18:00:17.847Z,9.82
2022-12-03T18:02:44.776Z,10.52
2022-12-03T18:05:11.777Z,9.55
2022-12-03T18:07:38.798Z,9.65
2022-12-03T18:10:06.516Z,9.98
2022-12-03T18:12:33.578Z,10.93
2022-12-03T18:15:00.407Z,10.30
2022-12-03T18:17:27.283Z,10.68
2022-12-03T18:19:54.473Z,9.27
2022-12-03T18:22:21.615Z,10.05
2022-12-03T18:24:51.541Z,9.23
2022-12-03T18:27:20.046Z,10.23
2022-12-03T18:29:46.915Z,11.10
2022-12-03T18:32:27.684Z,10.85
2022-12-03T18:34:56.470Z,9.20
2022-12-03T18:37:25.471Z,10.27
2022-12-03T18:39:52.731Z,12.50
2022-12-03T18:42:20.901Z,11.70
2022-12-03T18:44:49.999Z,10.23
2022-12-03T18:47:19.124Z,10.90
2022-12-03T18:49:46.286Z,13.40
2022-12-03T18:52:17.949Z,12.02
2022-12-03T18:54:44.983Z,10.25
2022-12-03T18:57:11.874Z,11.85
2022-12-03T18:59:38.935Z,11.27
2022-12-03T19:02:06.288Z,11.85
2022-12-03T19:04:33.367Z,10.73
2022-12-03T19:07:01.559Z,10.68
2022-12-03T19:09:28.438Z,13.38
2022-12-03T19:11:55.476Z,11.80
2022-12-03T19:14:23.550Z,10.93
2022-12-03T19:16:50.588Z,11.05
2022-12-03T19:19:17.542Z,9.98
2022-12-03T19:21:44.443Z,10.60
2022-12-03T19:24:26.754Z,12.77
2022-12-03T19:26:55.525Z,11.18
2022-12-03T19:29:25.321Z,9.77
2022-12-03T19:31:52.416Z,10.90
2022-12-03T19:34:19.555Z,10.57
2022-12-03T19:36:47.428Z,10.90
2022-12-03T19:39:14.316Z,9.63
2022-12-03T19:41:43.248Z,10.98
2022-12-03T19:44:12.963Z,10.48
2022-12-03T19:46:40.127Z,10.00
2022-12-03T19:49:07.280Z,11.23
2022-12-03T19:51:35.595Z,10.38
2022-12-03T19:54:06.788Z,10.60
2022-12-03T19:56:33.984Z,9.32
2022-12-03T19:59:00.999Z,11.32
2022-12-03T20:01:32.732Z,10.52
2022-12-03T20:04:02.320Z,10.60
2022-12-03T20:06:31.356Z,10.68
2022-12-03T20:09:03.629Z,11.35
2022-12-03T20:11:31.723Z,10.65
2022-12-03T20:14:00.346Z,10.27
2022-12-03T20:16:27.707Z,10.90
2022-12-03T20:19:02.560Z,10.05
2022-12-03T20:21:30.799Z,11.93
2022-12-03T20:23:57.824Z,9.98
2022-12-03T20:26:25.053Z,10.60
2022-12-03T20:28:53.706Z,13.02
2022-12-03T20:31:21.482Z,10.20
2022-12-03T20:33:54.896Z,9.73
2022-12-03T20:36:22.859Z,10.32
2022-12-03T20:38:59.848Z,10.95
2022-12-03T20:41:26.872Z,10.90
2022-12-03T20:43:53.807Z,10.57
2022-12-03T20:46:22.619Z,11.40
2022-12-03T20:48:49.714Z,10.27
2022-12-03T20:51:18.188Z,10.02
2022-12-03T20:53:45.398Z,9.50
2022-12-03T20:56:20.567Z,10.63
2022-12-03T20:58:48.878Z,11.85
2022-12-03T21:01:18.513Z,10.57
2022-12-03T21:03:47.023Z,11.45
2022-12-03T21:06:14.353Z,10.27
2022-12-03T21:08:42.420Z,10.98
2022-12-03T21:11:10.927Z,10.27
2022-12-03T21:13:41.358Z,9.85
2022-12-03T21:16:09.175Z,9.57
2022-12-03T21:18:36.177Z,10.30
2022-12-03T21:21:05.183Z,9.38
2022-12-03T21:23:32.665Z,9.50
2022-12-03T21:26:07.292Z,9.88
2022-12-03T21:28:34.402Z,9.43
2022-12-03T21:31:05.941Z,8.95
2022-12-03T21:33:33.175Z,10.18
2022-12-03T21:36:00.279Z,9.93
2022-12-03T21:38:27.652Z,9.60
2022-12-03T21:40:54.775Z,9.68
2022-12-03T21:43:21.938Z,8.90
2022-12-03T21:45:49.104Z,9.30
2022-12-03T21:48:16.383Z,11.02
2022-12-03T21:50:43.366Z,10.60
2022-12-03T21:53:10.430Z,10.07
2022-12-03T21:55:40.746Z,10.07
2022-12-03T21:58:08.411Z,10.98
2022-12-03T22:00:35.618Z,9.50
2022-12-03T22:03:02.776Z,9.40
2022-12-03T22:05:29.732Z,9.63
2022-12-03T22:07:59.183Z,10.48
2022-12-03T22:10:26.223Z,11.77
2022-12-03T22:12:53.225Z,10.65
2022-12-03T22:15:20.177Z,9.90
2022-12-03T22:17:47.661Z,9.70
2022-12-03T22:20:14.780Z,10.00
2022-12-03T22:22:42.101Z,10.07
2022-12-03T22:25:12.265Z,9.63
2022-12-03T22:27:39.343Z,9.07
2022-12-03T22:30:06.893Z,10.57
2022-12-03T22:32:34.027Z,9.93
2022-12-03T22:35:01.018Z,11.48
2022-12-03T22:37:27.908Z,12.07
2022-12-03T22:39:54.967Z,10.23
2022-12-03T22:42:22.207Z,11.60
2022-12-03T22:44:49.132Z,11.25
2022-12-03T22:47:16.056Z,10.38
2022-12-03T22:49:43.064Z,9.85
2022-12-03T22:52:10.023Z,9.82
2022-12-03T22:54:36.974Z,10.55
2022-12-03T22:57:04.267Z,10.85
2022-12-03T22:59:31.401Z,10.68
2022-12-03T23:01:58.485Z,10.57
2022-12-03T23:04:25.580Z,10.05
2022-12-03T23:06:52.724Z,10.00
2022-12-03T23:09:19.637Z,9.88
2022-12-03T23:11:47.174Z,10.45
2022-12-03T23:14:14.443Z,10.60
2022-12-03T23:16:41.711Z,10.35
2022-12-03T23:19:08.690Z,10.00
2022-12-03T23:21:36.093Z,9.13
2022-12-03T23:24:03.769Z,8.73
2022-12-03T23:26:33.083Z,10.07
2022-12-03T23:29:00.183Z,9.80
2022-12-03T23:31:30.944Z,10.18
2022-12-03T23:33:58.077Z,10.07
2022-12-03T23:36:25.560Z,10.10
2022-12-03T23:38:52.566Z,8.82
2022-12-03T23:41:20.241Z,9.45
2022-12-03T23:43:47.638Z,9.57
2022-12-03T23:46:19.653Z,9.82
2022-12-03T23:48:46.860Z,10.45
2022-12-03T23:51:15.438Z,9.95
2022-12-03T23:53:42.589Z,9.70
2022-12-03T23:56:11.517Z,9.63
2022-12-03T23:58:38.778Z,9.13
